Time;durP1;ratioP1;P1;durP2;ratioP2;P2;SDS_P1;SDS_P2;PMS_P1;PMS_P2;Temp;Humidity;BMP_temperature;BMP_pressure;BME280_temperature;BME280_humidity;BME280_pressure;Samples;Min_cycle;Max_cycle;Signal;HPM_P1;HPM_P2
2023/04/23 00:01:28;;;;;;;;;;;22.40;46.50;;;;;;1553915;75;804;-59
2023/04/23 00:03:31;;;;;;;;;;;22.40;46.50;;;;;;1559720;75;1943;-60
2023/04/23 00:05:35;;;;;;;;;;;22.40;46.40;;;;;;1560386;75;1169;-60
2023/04/23 00:07:37;;;;;;;;;;;22.40;46.50;;;;;;1560545;75;851;-60
2023/04/23 00:09:38;;;;;;;;;;;22.40;46.60;;;;;;1574242;74;784;-61
2023/04/23 00:11:41;;;;;;;;;;;22.30;46.50;;;;;;1559145;75;655;-59
2023/04/23 00:13:43;;;;;;;;;;;22.40;46.50;;;;;;1559843;75;771;-61
2023/04/23 00:15:45;;;;;;;;;;;22.50;46.90;;;;;;1560724;75;1145;-60
2023/04/23 00:17:47;;;;;;;;;;;22.40;46.60;;;;;;1555732;75;1579;-60
2023/04/23 00:19:50;;;;;;;;;;;22.40;46.50;;;;;;1556963;75;725;-61
2023/04/23 00:21:52;;;;;;;;;;;22.40;46.60;;;;;;1566988;74;725;-60
2023/04/23 00:23:54;;;;;;;;;;;22.40;46.60;;;;;;1553483;75;1946;-59
2023/04/23 00:25:56;;;;;;;;;;;22.40;46.70;;;;;;1568831;74;1110;-59
2023/04/23 00:27:58;;;;;;;;;;;22.40;46.70;;;;;;1553201;75;813;-61
2023/04/23 00:30:00;;;;;;;;;;;22.40;46.80;;;;;;1563096;75;988;-59
2023/04/23 00:32:02;;;;;;;;;;;22.40;46.80;;;;;;1553836;75;1651;-59
2023/04/23 00:34:04;;;;;;;;;;;22.40;46.80;;;;;;1570179;75;786;-59
2023/04/23 00:36:06;;;;;;;;;;;22.50;47.00;;;;;;1548778;74;1126;-59
2023/04/23 00:38:08;;;;;;;;;;;22.30;46.80;;;;;;1555385;75;710;-59
2023/04/23 00:40:10;;;;;;;;;;;22.40;46.80;;;;;;1566234;75;766;-60
2023/04/23 00:42:12;;;;;;;;;;;22.30;46.90;;;;;;1570166;75;950;-59
2023/04/23 00:44:14;;;;;;;;;;;22.50;47.20;;;;;;1562036;75;1951;-59
2023/04/23 00:46:16;;;;;;;;;;;22.40;47.00;;;;;;1571743;75;1552;-59
2023/04/23 00:48:18;;;;;;;;;;;22.40;47.10;;;;;;1574687;75;751;-58
2023/04/23 00:50:20;;;;;;;;;;;22.40;46.90;;;;;;1551906;75;681;-58
2023/04/23 00:52:22;;;;;;;;;;;22.40;47.10;;;;;;1561327;75;870;-58
2023/04/23 00:54:24;;;;;;;;;;;22.40;46.80;;;;;;1565641;75;1148;-60
2023/04/23 00:56:26;;;;;;;;;;;22.40;47.00;;;;;;1555608;74;697;-60
2023/04/23 00:58:28;;;;;;;;;;;22.30;47.00;;;;;;1560632;74;801;-60
2023/04/23 01:00:30;;;;;;;;;;;22.30;47.20;;;;;;1574124;75;1710;-60
2023/04/23 01:02:32;;;;;;;;;;;22.30;47.30;;;;;;1570996;75;728;-60
2023/04/23 01:04:34;;;;;;;;;;;22.30;47.30;;;;;;1566488;75;1926;-60
2023/04/23 01:06:36;;;;;;;;;;;22.30;47.30;;;;;;1574759;75;732;-61
2023/04/23 01:08:38;;;;;;;;;;;22.40;47.10;;;;;;1564433;75;713;-60
2023/04/23 01:10:40;;;;;;;;;;;22.30;47.20;;;;;;1568280;74;814;-60
2023/04/23 01:12:42;;;;;;;;;;;22.40;47.20;;;;;;1560929;75;733;-60
2023/04/23 01:14:44;;;;;;;;;;;22.30;47.30;;;;;;1562754;74;1687;-60
2023/04/23 01:16:46;;;;;;;;;;;22.40;47.50;;;;;;1563102;75;775;-59
2023/04/23 01:18:48;;;;;;;;;;;22.20;47.40;;;;;;1569087;75;746;-59
2023/04/23 01:20:50;;;;;;;;;;;22.30;47.70;;;;;;1558697;75;768;-60
2023/04/23 01:22:52;;;;;;;;;;;22.30;47.80;;;;;;1550763;75;736;-60
2023/04/23 01:24:54;;;;;;;;;;;22.20;47.90;;;;;;1557953;75;1914;-60
2023/04/23 01:26:57;;;;;;;;;;;22.20;47.80;;;;;;1551760;74;1550;-60
2023/04/23 01:28:59;;;;;;;;;;;22.20;47.70;;;;;;1558315;75;735;-60
2023/04/23 01:31:01;;;;;;;;;;;22.10;48.00;;;;;;1554745;75;1070;-61
2023/04/23 01:33:04;;;;;;;;;;;22.10;48.30;;;;;;1566546;75;722;-61
2023/04/23 01:35:07;;;;;;;;;;;22.10;48.20;;;;;;1560547;75;1187;-61
2023/04/23 01:37:09;;;;;;;;;;;22.10;48.10;;;;;;1567351;75;792;-63
2023/04/23 01:39:10;;;;;;;;;;;22.10;48.30;;;;;;1559975;75;694;-62
2023/04/23 01:41:12;;;;;;;;;;;22.10;48.20;;;;;;1565346;75;1565;-62
2023/04/23 01:43:14;;;;;;;;;;;22.10;48.10;;;;;;1553217;75;677;-62
2023/04/23 01:45:18;;;;;;;;;;;22.10;48.00;;;;;;1558124;75;1923;-62
2023/04/23 01:47:20;;;;;;;;;;;22.20;47.90;;;;;;1573756;74;1753;-60
2023/04/23 01:49:21;;;;;;;;;;;22.20;48.00;;;;;;1560098;75;672;-60
2023/04/23 01:51:24;;;;;;;;;;;22.10;48.10;;;;;;1559527;75;711;-62
2023/04/23 01:53:26;;;;;;;;;;;22.10;48.10;;;;;;1557031;75;702;-62
2023/04/23 01:55:28;;;;;;;;;;;22.10;48.30;;;;;;1569140;74;1556;-61
2023/04/23 01:57:30;;;;;;;;;;;22.10;48.30;;;;;;1562263;75;753;-61
2023/04/23 01:59:31;;;;;;;;;;;22.10;48.50;;;;;;1568375;75;759;-60
2023/04/23 02:01:43;;;;;;;;;;;22.00;48.40;;;;;;1553128;74;683;-60
2023/04/23 02:03:45;;;;;;;;;;;22.00;48.50;;;;;;1542583;75;1935;-61
2023/04/23 02:05:47;;;;;;;;;;;22.00;48.60;;;;;;1550882;75;1126;-60
2023/04/23 02:07:49;;;;;;;;;;;22.00;48.70;;;;;;1557799;75;756;-59
2023/04/23 02:09:51;;;;;;;;;;;22.00;48.60;;;;;;1559976;74;1590;-61
2023/04/23 02:11:53;;;;;;;;;;;22.00;48.50;;;;;;1554716;75;634;-60
2023/04/23 02:13:55;;;;;;;;;;;22.10;48.60;;;;;;1562680;75;741;-60
2023/04/23 02:15:56;;;;;;;;;;;22.10;48.40;;;;;;1569615;75;1149;-61
2023/04/23 02:17:58;;;;;;;;;;;22.10;48.60;;;;;;1557650;75;799;-61
2023/04/23 02:20:01;;;;;;;;;;;22.00;48.70;;;;;;1559260;75;803;-61
2023/04/23 02:22:02;;;;;;;;;;;22.00;48.80;;;;;;1552758;75;840;-62
2023/04/23 02:24:04;;;;;;;;;;;22.00;48.70;;;;;;1558292;75;1939;-60
2023/04/23 02:26:06;;;;;;;;;;;22.00;48.70;;;;;;1574329;75;1079;-60
2023/04/23 02:28:12;;;;;;;;;;;22.00;48.60;;;;;;1558775;74;743;-60
2023/04/23 02:30:12;;;;;;;;;;;22.10;48.60;;;;;;1576365;74;1551;-60
2023/04/23 02:32:14;;;;;;;;;;;22.10;48.60;;;;;;1574556;74;663;-61
2023/04/23 02:34:16;;;;;;;;;;;22.10;48.70;;;;;;1582719;74;771;-61
2023/04/23 02:36:17;;;;;;;;;;;22.00;48.60;;;;;;1579397;74;727;-60
2023/04/23 02:38:19;;;;;;;;;;;22.00;48.90;;;;;;1578758;74;1539;-61
2023/04/23 02:40:21;;;;;;;;;;;21.90;49.00;;;;;;1579100;74;783;-61
2023/04/23 02:42:23;;;;;;;;;;;21.90;49.20;;;;;;1583099;74;738;-60
2023/04/23 02:44:25;;;;;;;;;;;21.90;49.20;;;;;;1578237;74;1940;-59
2023/04/23 02:46:27;;;;;;;;;;;21.90;49.60;;;;;;1584746;74;917;-60
2023/04/23 02:48:29;;;;;;;;;;;21.80;49.30;;;;;;1588362;74;715;-61
2023/04/23 02:50:31;;;;;;;;;;;21.80;49.30;;;;;;1581771;74;710;-62
2023/04/23 02:52:33;;;;;;;;;;;21.80;49.30;;;;;;1578205;74;1570;-62
2023/04/23 02:54:39;;;;;;;;;;;21.90;49.40;;;;;;1579164;74;1160;-62
2023/04/23 02:56:38;;;;;;;;;;;21.90;49.70;;;;;;1577859;74;1264;-61
2023/04/23 02:58:40;;;;;;;;;;;21.80;49.50;;;;;;1582873;74;777;-60
2023/04/23 03:00:42;;;;;;;;;;;21.80;49.60;;;;;;1579155;74;696;-62
2023/04/23 03:02:44;;;;;;;;;;;21.80;49.60;;;;;;1578414;74;764;-62
2023/04/23 03:04:46;;;;;;;;;;;21.80;49.60;;;;;;1579594;74;1930;-60
2023/04/23 03:06:48;;;;;;;;;;;21.80;49.70;;;;;;1578288;74;1569;-63
2023/04/23 03:08:50;;;;;;;;;;;21.80;49.60;;;;;;1589622;74;720;-62
2023/04/23 03:10:51;;;;;;;;;;;21.80;49.50;;;;;;1577426;73;748;-61
2023/04/23 03:12:53;;;;;;;;;;;21.80;49.50;;;;;;1574585;74;750;-60
2023/04/23 03:14:55;;;;;;;;;;;21.90;49.50;;;;;;1588312;74;1183;-60
2023/04/23 03:16:57;;;;;;;;;;;21.90;49.40;;;;;;1584201;74;794;-63
2023/04/23 03:19:00;;;;;;;;;;;21.90;49.20;;;;;;1581723;74;707;-63
2023/04/23 03:21:01;;;;;;;;;;;22.00;49.20;;;;;;1591350;74;1672;-61
2023/04/23 03:23:08;;;;;;;;;;;22.00;49.10;;;;;;1568345;74;696;-61
2023/04/23 03:25:08;;;;;;;;;;;22.10;48.90;;;;;;1588157;74;1910;-61
2023/04/23 03:27:09;;;;;;;;;;;22.20;48.80;;;;;;1574187;74;772;-61
2023/04/23 03:29:11;;;;;;;;;;;22.20;48.70;;;;;;1573080;74;681;-60
2023/04/23 03:31:13;;;;;;;;;;;22.20;48.60;;;;;;1582686;74;1129;-61
2023/04/23 03:33:15;;;;;;;;;;;22.20;48.70;;;;;;1581694;74;717;-61
2023/04/23 03:35:17;;;;;;;;;;;22.10;48.70;;;;;;1566967;74;1554;-64
2023/04/23 03:37:19;;;;;;;;;;;22.20;48.70;;;;;;1582401;75;753;-62
2023/04/23 03:39:21;;;;;;;;;;;22.20;48.60;;;;;;1573578;74;791;-60
2023/04/23 03:41:23;;;;;;;;;;;22.20;48.80;;;;;;1569380;75;764;-59
2023/04/23 03:43:25;;;;;;;;;;;22.30;48.70;;;;;;1564399;75;778;-61
2023/04/23 03:45:27;;;;;;;;;;;22.30;49.00;;;;;;1568789;74;1948;-61
2023/04/23 03:47:29;;;;;;;;;;;22.30;48.70;;;;;;1571460;75;773;-62
2023/04/23 03:49:31;;;;;;;;;;;22.30;48.60;;;;;;1577346;74;1881;-62
2023/04/23 03:51:33;;;;;;;;;;;22.40;48.40;;;;;;1585496;74;818;-61
2023/04/23 03:53:35;;;;;;;;;;;22.40;48.30;;;;;;1573050;74;705;-61
2023/04/23 03:55:37;;;;;;;;;;;22.40;48.20;;;;;;1584073;74;1144;-61
2023/04/23 03:57:38;;;;;;;;;;;22.40;48.20;;;;;;1569017;74;602;-62
2023/04/23 03:59:40;;;;;;;;;;;22.30;48.30;;;;;;1574322;75;822;-62
2023/04/23 04:01:42;;;;;;;;;;;22.40;48.20;;;;;;1565105;73;1549;-61
2023/04/23 04:03:44;;;;;;;;;;;22.40;48.40;;;;;;1575534;75;691;-61
2023/04/23 04:05:46;;;;;;;;;;;22.40;48.40;;;;;;1564577;73;1937;-61
2023/04/23 04:07:48;;;;;;;;;;;22.40;48.30;;;;;;1563543;74;702;-61
2023/04/23 04:09:50;;;;;;;;;;;22.40;48.20;;;;;;1576163;73;692;-59
2023/04/23 04:11:55;;;;;;;;;;;22.40;48.10;;;;;;1565588;73;728;-61
2023/04/23 04:13:57;;;;;;;;;;;22.40;48.10;;;;;;1576072;74;912;-62
2023/04/23 04:15:59;;;;;;;;;;;22.40;48.60;;;;;;1571668;74;1742;-61
2023/04/23 04:18:00;;;;;;;;;;;22.40;48.50;;;;;;1565801;75;742;-60
2023/04/23 04:20:02;;;;;;;;;;;22.40;48.50;;;;;;1575441;74;795;-61
2023/04/23 04:22:05;;;;;;;;;;;22.40;48.60;;;;;;1571056;74;739;-61
2023/04/23 04:24:10;;;;;;;;;;;22.40;48.40;;;;;;1568999;75;749;-60
2023/04/23 04:26:12;;;;;;;;;;;22.50;48.50;;;;;;1574666;74;1919;-61
2023/04/23 04:28:14;;;;;;;;;;;22.40;48.70;;;;;;1572651;74;809;-61
2023/04/23 04:30:16;;;;;;;;;;;22.40;49.10;;;;;;1577842;74;1439;-61
2023/04/23 04:32:18;;;;;;;;;;;22.40;48.80;;;;;;1558701;75;1055;-61
2023/04/23 04:34:20;;;;;;;;;;;22.30;48.90;;;;;;1556232;75;1206;-61
2023/04/23 04:36:23;;;;;;;;;;;22.30;48.80;;;;;;1547605;75;674;-61
2023/04/23 04:38:25;;;;;;;;;;;22.40;48.60;;;;;;1566506;75;968;-61
2023/04/23 04:40:27;;;;;;;;;;;22.40;49.00;;;;;;1548703;74;741;-62
2023/04/23 04:42:29;;;;;;;;;;;22.20;49.10;;;;;;1572032;75;722;-61
2023/04/23 04:44:31;;;;;;;;;;;22.20;49.40;;;;;;1545029;75;1533;-62
2023/04/23 04:46:39;;;;;;;;;;;22.20;49.30;;;;;;1557628;75;777;-60
2023/04/23 04:48:38;;;;;;;;;;;22.20;49.70;;;;;;1543836;75;1611;-60
2023/04/23 04:50:39;;;;;;;;;;;22.20;49.80;;;;;;1551282;75;731;-62
2023/04/23 04:52:41;;;;;;;;;;;22.10;49.70;;;;;;1551124;75;772;-63
2023/04/23 04:54:43;;;;;;;;;;;22.20;49.90;;;;;;1547229;75;1137;-61
2023/04/23 04:56:45;;;;;;;;;;;22.20;49.80;;;;;;1554788;75;708;-61
2023/04/23 04:58:47;;;;;;;;;;;22.20;49.60;;;;;;1543195;75;1575;-61
2023/04/23 05:00:50;;;;;;;;;;;22.30;49.40;;;;;;1547958;75;719;-61
2023/04/23 05:02:52;;;;;;;;;;;22.30;49.70;;;;;;1550668;75;787;-60
2023/04/23 05:04:54;;;;;;;;;;;22.20;49.60;;;;;;1547038;75;1956;-60
2023/04/23 05:06:56;;;;;;;;;;;22.10;50.00;;;;;;1556777;75;647;-63
2023/04/23 05:08:58;;;;;;;;;;;22.10;50.00;;;;;;1556062;75;728;-61
2023/04/23 05:11:00;;;;;;;;;;;22.10;50.10;;;;;;1540534;75;722;-61
2023/04/23 05:13:02;;;;;;;;;;;22.10;50.10;;;;;;1540005;75;1599;-61
2023/04/23 05:15:04;;;;;;;;;;;22.00;49.80;;;;;;1560794;75;1181;-61
2023/04/23 05:17:06;;;;;;;;;;;22.00;49.90;;;;;;1549854;75;768;-62
2023/04/23 05:19:08;;;;;;;;;;;22.00;50.00;;;;;;1549931;75;705;-61
2023/04/23 05:21:10;;;;;;;;;;;22.10;50.00;;;;;;1557639;74;764;-62
2023/04/23 05:23:12;;;;;;;;;;;22.00;50.10;;;;;;1562107;75;708;-62
2023/04/23 05:25:14;;;;;;;;;;;22.00;50.10;;;;;;1542024;75;1939;-61
2023/04/23 05:27:16;;;;;;;;;;;22.00;50.20;;;;;;1551445;75;1593;-61
2023/04/23 05:29:18;;;;;;;;;;;22.10;50.50;;;;;;1553580;75;724;-61
2023/04/23 05:31:20;;;;;;;;;;;21.90;50.40;;;;;;1537845;75;718;-62
2023/04/23 05:33:22;;;;;;;;;;;22.00;50.50;;;;;;1568277;75;1072;-60
2023/04/23 05:35:23;;;;;;;;;;;22.10;50.50;;;;;;1575182;74;1207;-61
2023/04/23 05:37:25;;;;;;;;;;;22.10;50.40;;;;;;1578939;74;764;-62
2023/04/23 05:39:27;;;;;;;;;;;22.10;50.40;;;;;;1575258;74;703;-60
2023/04/23 05:41:29;;;;;;;;;;;22.20;50.20;;;;;;1577000;74;1580;-63
2023/04/23 05:43:31;;;;;;;;;;;22.20;50.00;;;;;;1575736;74;863;-62
2023/04/23 05:45:33;;;;;;;;;;;22.20;49.80;;;;;;1571298;75;1938;-62
2023/04/23 05:47:35;;;;;;;;;;;22.30;49.70;;;;;;1579630;74;691;-61
2023/04/23 05:49:37;;;;;;;;;;;22.30;49.50;;;;;;1577045;74;748;-61
2023/04/23 05:51:38;;;;;;;;;;;22.30;49.50;;;;;;1579197;74;743;-61
2023/04/23 05:53:40;;;;;;;;;;;22.40;49.80;;;;;;1589423;74;700;-61
2023/04/23 05:55:42;;;;;;;;;;;22.40;49.90;;;;;;1568592;74;1395;-62
2023/04/23 05:57:45;;;;;;;;;;;22.40;50.00;;;;;;1584658;74;649;-61
2023/04/23 05:59:46;;;;;;;;;;;22.40;49.90;;;;;;1576124;74;669;-60
2023/04/23 06:01:48;;;;;;;;;;;22.30;50.00;;;;;;1590089;74;727;-60
2023/04/23 06:03:51;;;;;;;;;;;22.40;50.00;;;;;;1577362;74;758;-61
2023/04/23 06:05:53;;;;;;;;;;;22.30;49.80;;;;;;1578144;74;1934;-60
2023/04/23 06:07:55;;;;;;;;;;;22.30;49.60;;;;;;1569395;74;1519;-60
2023/04/23 06:09:56;;;;;;;;;;;22.40;49.40;;;;;;1567732;74;1596;-61
2023/04/23 06:11:58;;;;;;;;;;;22.30;49.30;;;;;;1571886;74;1527;-60
2023/04/23 06:14:00;;;;;;;;;;;22.30;49.20;;;;;;1574582;74;1273;-60
2023/04/23 06:16:02;;;;;;;;;;;22.40;49.10;;;;;;1566517;74;1200;-59
2023/04/23 06:18:04;;;;;;;;;;;22.40;48.90;;;;;;1578298;74;1478;-60
2023/04/23 06:20:07;;;;;;;;;;;22.40;48.80;;;;;;1578145;74;1552;-61
2023/04/23 06:22:09;;;;;;;;;;;22.30;48.80;;;;;;1576793;74;1456;-60
2023/04/23 06:24:11;;;;;;;;;;;22.40;48.70;;;;;;1571068;74;1758;-59
2023/04/23 06:26:13;;;;;;;;;;;22.40;48.70;;;;;;1569788;74;1941;-59
2023/04/23 06:28:15;;;;;;;;;;;22.40;48.60;;;;;;1577598;74;1242;-59
2023/04/23 06:30:17;;;;;;;;;;;22.40;48.50;;;;;;1568382;74;1486;-60
2023/04/23 06:32:19;;;;;;;;;;;22.40;48.50;;;;;;1575976;74;1447;-60
2023/04/23 06:34:21;;;;;;;;;;;22.40;48.50;;;;;;1568733;74;1478;-60
2023/04/23 06:36:23;;;;;;;;;;;22.40;48.40;;;;;;1568089;74;1485;-60
2023/04/23 06:38:25;;;;;;;;;;;22.40;48.30;;;;;;1571086;74;1136;-60
2023/04/23 06:40:27;;;;;;;;;;;22.40;48.40;;;;;;1571451;74;1094;-60
2023/04/23 06:42:28;;;;;;;;;;;22.40;48.30;;;;;;1573263;74;1543;-59
2023/04/23 06:44:30;;;;;;;;;;;22.40;48.30;;;;;;1573502;74;1522;-59
2023/04/23 06:46:32;;;;;;;;;;;22.40;48.30;;;;;;1570229;74;1957;-60
2023/04/23 06:48:34;;;;;;;;;;;22.40;48.30;;;;;;1569052;74;1520;-60
2023/04/23 06:50:36;;;;;;;;;;;22.50;48.40;;;;;;1573882;74;1405;-59
2023/04/23 06:52:38;;;;;;;;;;;22.40;48.20;;;;;;1582263;74;1228;-59
2023/04/23 06:54:40;;;;;;;;;;;22.40;48.20;;;;;;1577083;74;1503;-60
2023/04/23 06:56:42;;;;;;;;;;;22.40;48.20;;;;;;1573616;74;1479;-60
2023/04/23 06:58:44;;;;;;;;;;;22.40;48.30;;;;;;1578731;74;1498;-59
2023/04/23 07:00:46;;;;;;;;;;;22.40;48.30;;;;;;1575302;74;1471;-59
2023/04/23 07:02:47;;;;;;;;;;;22.40;48.30;;;;;;1585852;74;1472;-60
2023/04/23 07:04:49;;;;;;;;;;;22.40;48.30;;;;;;1575218;74;1513;-59
2023/04/23 07:06:51;;;;;;;;;;;22.30;48.40;;;;;;1570675;74;1933;-60
2023/04/23 07:08:53;;;;;;;;;;;22.40;48.40;;;;;;1564275;74;1492;-60
2023/04/23 07:10:55;;;;;;;;;;;22.40;48.40;;;;;;1548881;75;1188;-60
2023/04/23 07:12:57;;;;;;;;;;;22.40;48.40;;;;;;1540549;76;1419;-59
2023/04/23 07:14:59;;;;;;;;;;;22.30;48.40;;;;;;1541170;76;1528;-59
2023/04/23 07:17:01;;;;;;;;;;;22.40;48.40;;;;;;1547778;76;1440;-59
2023/04/23 07:19:03;;;;;;;;;;;22.40;48.50;;;;;;1549214;76;1451;-59
2023/04/23 07:21:05;;;;;;;;;;;22.40;48.50;;;;;;1540224;76;1566;-59
2023/04/23 07:23:07;;;;;;;;;;;22.30;48.50;;;;;;1539833;76;1511;-60
2023/04/23 07:25:09;;;;;;;;;;;22.40;48.50;;;;;;1543055;76;1233;-60
2023/04/23 07:27:11;;;;;;;;;;;22.40;48.50;;;;;;1544288;76;1898;-61
2023/04/23 07:29:14;;;;;;;;;;;22.40;48.50;;;;;;1551611;76;1511;-60
2023/04/23 07:31:16;;;;;;;;;;;22.30;48.50;;;;;;1543282;76;1304;-60
2023/04/23 07:33:18;;;;;;;;;;;22.50;48.60;;;;;;1546913;76;1508;-59
2023/04/23 07:35:20;;;;;;;;;;;22.40;48.60;;;;;;1541120;75;1301;-59
2023/04/23 07:37:22;;;;;;;;;;;22.30;48.60;;;;;;1544297;76;1391;-60
2023/04/23 07:39:24;;;;;;;;;;;22.30;48.60;;;;;;1546980;76;1872;-60
2023/04/23 07:41:26;;;;;;;;;;;22.30;48.60;;;;;;1548943;75;1423;-60
2023/04/23 07:43:28;;;;;;;;;;;22.30;48.70;;;;;;1549058;76;1041;-60
2023/04/23 07:45:29;;;;;;;;;;;22.30;48.60;;;;;;1547401;76;1545;-61
2023/04/23 07:47:31;;;;;;;;;;;22.40;48.70;;;;;;1546124;76;1944;-60
2023/04/23 07:49:33;;;;;;;;;;;22.30;48.80;;;;;;1540771;76;1205;-59
2023/04/23 07:51:35;;;;;;;;;;;22.30;48.90;;;;;;1538490;76;1538;-60
2023/04/23 07:53:37;;;;;;;;;;;22.30;48.80;;;;;;1541884;76;1393;-59
2023/04/23 07:55:39;;;;;;;;;;;22.30;48.80;;;;;;1548655;76;1494;-60
2023/04/23 07:57:41;;;;;;;;;;;22.30;48.80;;;;;;1541392;76;1310;-60
2023/04/23 07:59:43;;;;;;;;;;;22.30;49.20;;;;;;1536759;76;1100;-61
2023/04/23 08:01:45;;;;;;;;;;;22.40;50.80;;;;;;1548321;76;1574;-61
2023/04/23 08:03:47;;;;;;;;;;;22.20;50.60;;;;;;1549660;76;1051;-59
2023/04/23 08:05:49;;;;;;;;;;;22.20;49.80;;;;;;1556713;76;1945;-60
2023/04/23 08:07:51;;;;;;;;;;;22.20;49.70;;;;;;1545365;76;1115;-61
2023/04/23 08:09:52;;;;;;;;;;;22.10;49.70;;;;;;1561507;74;1097;-58
2023/04/23 08:11:56;;;;;;;;;;;22.10;49.70;;;;;;1569305;75;1157;-60
2023/04/23 08:13:58;;;;;;;;;;;22.00;49.70;;;;;;1566688;75;1060;-60
2023/04/23 08:16:00;;;;;;;;;;;22.00;49.70;;;;;;1564902;75;1525;-59
2023/04/23 08:18:03;;;;;;;;;;;22.00;49.70;;;;;;1567157;75;1539;-59
2023/04/23 08:20:09;;;;;;;;;;;22.00;49.60;;;;;;1578298;75;1079;-60
2023/04/23 08:22:09;;;;;;;;;;;22.00;49.50;;;;;;1565078;75;1301;-60
2023/04/23 08:24:11;;;;;;;;;;;21.90;49.40;;;;;;1572622;75;1453;-60
2023/04/23 08:26:13;;;;;;;;;;;21.90;49.40;;;;;;1574973;75;1943;-60
2023/04/23 08:28:15;;;;;;;;;;;21.90;49.40;;;;;;1563569;75;1481;-59
2023/04/23 08:30:17;;;;;;;;;;;21.80;49.40;;;;;;1567984;75;1631;-58
2023/04/23 08:32:19;;;;;;;;;;;21.70;49.20;;;;;;1556852;75;1144;-61
2023/04/23 08:34:21;;;;;;;;;;;21.70;49.20;;;;;;1564643;74;1506;-60
2023/04/23 08:36:23;;;;;;;;;;;21.70;49.00;;;;;;1562642;75;1218;-61
2023/04/23 08:38:25;;;;;;;;;;;21.70;49.30;;;;;;1563309;75;1469;-61
2023/04/23 08:40:29;;;;;;;;;;;21.70;49.10;;;;;;1566555;75;1286;-61
2023/04/23 08:42:44;;;;;;;;;;;21.60;49.00;;;;;;1565158;74;1476;-60
2023/04/23 08:44:46;;;;;;;;;;;21.60;48.90;;;;;;1572414;75;1588;-58
2023/04/23 08:46:48;;;;;;;;;;;21.60;49.00;;;;;;1560840;74;1954;-61
2023/04/23 08:48:51;;;;;;;;;;;21.70;49.40;;;;;;1566108;75;1086;-58
2023/04/23 08:50:52;;;;;;;;;;;21.70;49.30;;;;;;1562984;74;1388;-60
2023/04/23 08:52:55;;;;;;;;;;;21.80;49.20;;;;;;1566497;75;1069;-59
2023/04/23 08:54:58;;;;;;;;;;;21.80;49.10;;;;;;1565987;75;1153;-58
2023/04/23 08:57:00;;;;;;;;;;;21.80;49.10;;;;;;1555577;75;1287;-60
2023/04/23 08:59:02;;;;;;;;;;;21.90;49.30;;;;;;1568912;74;1266;-60
2023/04/23 09:01:04;;;;;;;;;;;21.80;49.70;;;;;;1569698;75;1393;-62
2023/04/23 09:03:06;;;;;;;;;;;21.80;49.60;;;;;;1561557;74;1484;-61
2023/04/23 09:05:08;;;;;;;;;;;21.80;49.60;;;;;;1567489;75;1133;-60
2023/04/23 09:07:11;;;;;;;;;;;21.80;49.60;;;;;;1575531;75;1923;-62
2023/04/23 09:09:14;;;;;;;;;;;21.80;49.50;;;;;;1562721;74;1142;-61
2023/04/23 09:11:16;;;;;;;;;;;21.80;49.20;;;;;;1544668;75;1433;-60
2023/04/23 09:13:18;;;;;;;;;;;21.80;49.20;;;;;;1549980;75;1336;-58
2023/04/23 09:15:21;;;;;;;;;;;21.80;48.80;;;;;;1566067;75;1266;-63
2023/04/23 09:17:23;;;;;;;;;;;21.70;48.60;;;;;;1545530;75;1057;-60
2023/04/23 09:19:26;;;;;;;;;;;21.70;48.60;;;;;;1567016;75;1124;-60
2023/04/23 09:21:28;;;;;;;;;;;21.80;48.60;;;;;;1556971;75;1057;-61
2023/04/23 09:23:30;;;;;;;;;;;21.80;48.60;;;;;;1557834;75;1193;-60
2023/04/23 09:25:32;;;;;;;;;;;21.80;48.80;;;;;;1554375;75;1502;-61
2023/04/23 09:27:35;;;;;;;;;;;21.70;49.00;;;;;;1559442;75;1940;-61
2023/04/23 09:29:37;;;;;;;;;;;21.80;49.40;;;;;;1555801;75;1495;-59
2023/04/23 09:31:39;;;;;;;;;;;21.70;48.90;;;;;;1552411;75;1074;-61
2023/04/23 09:33:41;;;;;;;;;;;21.70;48.90;;;;;;1554944;75;1561;-61
2023/04/23 09:35:43;;;;;;;;;;;21.80;48.90;;;;;;1551644;75;1341;-62
2023/04/23 09:37:48;;;;;;;;;;;21.80;49.20;;;;;;1558072;75;1510;-59
2023/04/23 09:39:52;;;;;;;;;;;21.80;49.10;;;;;;1566174;75;1466;-61
2023/04/23 09:41:53;;;;;;;;;;;21.80;49.10;;;;;;1561057;75;1693;-61
2023/04/23 09:43:56;;;;;;;;;;;21.80;49.20;;;;;;1548849;75;1502;-61
2023/04/23 09:45:57;;;;;;;;;;;21.80;49.10;;;;;;1560311;75;1625;-59
2023/04/23 09:47:59;;;;;;;;;;;21.70;49.00;;;;;;1555088;75;1907;-61
2023/04/23 09:50:01;;;;;;;;;;;21.70;49.20;;;;;;1559072;75;1160;-59
2023/04/23 09:52:05;;;;;;;;;;;21.80;49.10;;;;;;1555934;74;1496;-59
2023/04/23 09:54:14;;;;;;;;;;;21.80;48.90;;;;;;1558827;75;1538;-61
2023/04/23 09:56:16;;;;;;;;;;;21.80;49.20;;;;;;1549641;75;1139;-61
2023/04/23 09:58:18;;;;;;;;;;;21.70;49.20;;;;;;1564974;75;1097;-59
2023/04/23 10:00:21;;;;;;;;;;;21.60;49.20;;;;;;1552837;75;1509;-61
2023/04/23 10:02:29;;;;;;;;;;;21.50;49.20;;;;;;1557497;75;1522;-59
2023/04/23 10:04:31;;;;;;;;;;;21.50;49.50;;;;;;1558773;75;1148;-61
2023/04/23 10:06:33;;;;;;;;;;;21.40;49.30;;;;;;1560343;74;1935;-61
2023/04/23 10:08:36;;;;;;;;;;;21.50;49.20;;;;;;1562260;75;1607;-60
2023/04/23 10:10:38;;;;;;;;;;;21.30;49.30;;;;;;1577716;73;1486;-61
2023/04/23 10:12:40;;;;;;;;;;;21.20;49.70;;;;;;1585443;74;1257;-61
2023/04/23 10:14:42;;;;;;;;;;;21.30;49.70;;;;;;1583174;74;1179;-61
2023/04/23 10:16:43;;;;;;;;;;;21.40;49.70;;;;;;1581394;74;1152;-62
2023/04/23 10:18:45;;;;;;;;;;;21.40;49.70;;;;;;1589142;74;1484;-60
2023/04/23 10:20:48;;;;;;;;;;;21.40;49.70;;;;;;1588438;74;1558;-60
2023/04/23 10:22:50;;;;;;;;;;;21.40;49.60;;;;;;1576247;74;1562;-61
2023/04/23 10:24:56;;;;;;;;;;;21.60;49.60;;;;;;1584230;74;1176;-59
2023/04/23 10:26:57;;;;;;;;;;;21.60;49.30;;;;;;1580473;74;1954;-60
2023/04/23 10:28:59;;;;;;;;;;;21.60;49.20;;;;;;1577827;74;1112;-60
2023/04/23 10:31:02;;;;;;;;;;;21.60;49.20;;;;;;1584082;74;1504;-59
2023/04/23 10:33:05;;;;;;;;;;;21.70;49.30;;;;;;1584484;74;1457;-60
2023/04/23 10:35:07;;;;;;;;;;;21.70;49.40;;;;;;1574401;74;1146;-60
2023/04/23 10:37:10;;;;;;;;;;;21.70;49.20;;;;;;1580474;74;1503;-60
2023/04/23 10:39:12;;;;;;;;;;;21.70;49.00;;;;;;1582820;74;1437;-59
2023/04/23 10:41:15;;;;;;;;;;;21.70;49.10;;;;;;1585451;74;1117;-60
2023/04/23 10:43:17;;;;;;;;;;;21.60;48.90;;;;;;1579868;74;1554;-60
2023/04/23 10:45:19;;;;;;;;;;;21.60;48.90;;;;;;1586482;74;1337;-60
2023/04/23 10:47:21;;;;;;;;;;;21.70;48.90;;;;;;1575740;74;1954;-61
2023/04/23 10:49:24;;;;;;;;;;;21.70;48.90;;;;;;1578441;74;1390;-59
2023/04/23 10:51:27;;;;;;;;;;;21.70;48.60;;;;;;1587454;74;1896;-60
2023/04/23 10:55:53;;;;;;;;;;;21.60;48.50;;;;;;1582426;74;1600;-60
2023/04/23 10:58:00;;;;;;;;;;;21.60;48.40;;;;;;1578500;74;1817;-60
2023/04/23 11:00:03;;;;;;;;;;;21.60;48.10;;;;;;1586215;74;1475;-59
2023/04/23 11:02:05;;;;;;;;;;;21.50;48.10;;;;;;1588730;74;1448;-58
2023/04/23 11:04:20;;;;;;;;;;;21.60;48.00;;;;;;1586923;74;1567;-59
2023/04/23 11:06:42;;;;;;;;;;;21.70;48.20;;;;;;1579599;74;1087;-57
2023/04/23 11:08:51;;;;;;;;;;;21.60;47.90;;;;;;1586466;74;1929;-59
2023/04/23 11:10:57;;;;;;;;;;;21.60;48.20;;;;;;1570745;73;1479;-60
2023/04/23 11:13:18;;;;;;;;;;;21.60;48.30;;;;;;1564541;75;1642;-61
2023/04/23 11:15:20;;;;;;;;;;;21.60;48.40;;;;;;1555387;75;1500;-60
2023/04/23 11:17:22;;;;;;;;;;;21.60;48.60;;;;;;1562566;75;1486;-62
2023/04/23 11:19:24;;;;;;;;;;;21.50;48.90;;;;;;1566021;75;1669;-59
2023/04/23 11:21:44;;;;;;;;;;;21.60;48.50;;;;;;1557536;75;1176;-61
2023/04/23 11:23:46;;;;;;;;;;;21.50;48.10;;;;;;1571167;74;1471;-60
2023/04/23 11:25:48;;;;;;;;;;;21.30;48.60;;;;;;1565550;75;1324;-61
2023/04/23 11:27:50;;;;;;;;;;;21.30;48.60;;;;;;1565389;75;1947;-61
2023/04/23 11:29:52;;;;;;;;;;;21.30;48.60;;;;;;1563424;74;1080;-61
2023/04/23 11:31:54;;;;;;;;;;;21.30;47.90;;;;;;1558671;75;1453;-61
2023/04/23 11:33:56;;;;;;;;;;;21.20;48.50;;;;;;1568948;75;1200;-61
2023/04/23 11:35:58;;;;;;;;;;;21.20;48.30;;;;;;1576459;74;1495;-61
2023/04/23 11:38:00;;;;;;;;;;;21.20;48.40;;;;;;1569969;74;1118;-61
2023/04/23 11:40:05;;;;;;;;;;;21.30;48.10;;;;;;1560480;75;1099;-60
2023/04/23 11:42:13;;;;;;;;;;;21.30;48.10;;;;;;1565066;75;1473;-60
2023/04/23 11:44:15;;;;;;;;;;;21.40;47.40;;;;;;1571070;75;1151;-61
2023/04/23 11:46:17;;;;;;;;;;;21.30;46.80;;;;;;1572650;75;1469;-59
2023/04/23 11:48:19;;;;;;;;;;;21.20;45.80;;;;;;1562904;75;1922;-62
2023/04/23 11:50:22;;;;;;;;;;;21.10;47.10;;;;;;1565940;75;1500;-61
2023/04/23 11:52:24;;;;;;;;;;;21.10;47.00;;;;;;1578782;75;1083;-60
2023/04/23 11:54:27;;;;;;;;;;;21.00;47.40;;;;;;1531831;76;1279;-59
2023/04/23 11:56:31;;;;;;;;;;;20.50;47.30;;;;;;1571622;75;1165;-61
2023/04/23 11:58:33;;;;;;;;;;;21.00;47.30;;;;;;1563434;75;1041;-58
2023/04/23 12:00:35;;;;;;;;;;;21.00;47.50;;;;;;1560600;75;1474;-58
2023/04/23 12:02:37;;;;;;;;;;;21.00;47.00;;;;;;1562224;75;1111;-60
2023/04/23 12:04:39;;;;;;;;;;;21.00;47.10;;;;;;1577734;74;1115;-61
2023/04/23 12:06:42;;;;;;;;;;;20.90;46.30;;;;;;1565108;75;1413;-62
2023/04/23 12:08:45;;;;;;;;;;;20.90;46.80;;;;;;1574138;75;1945;-61